sensor_id;sensor_type;location;lat;lon;timestamp;temperature;humidity
14771;DHT22;7477;45.222;5.688;2023-08-01T00:02:45;21.40;90.20
14771;DHT22;7477;45.222;5.688;2023-08-01T00:06:05;21.30;89.90
14771;DHT22;7477;45.222;5.688;2023-08-01T00:09:24;21.30;89.70
14771;DHT22;7477;45.222;5.688;2023-08-01T00:12:43;21.30;90.20
14771;DHT22;7477;45.222;5.688;2023-08-01T00:16:02;21.20;90.70
14771;DHT22;7477;45.222;5.688;2023-08-01T00:19:21;21.20;89.90
14771;DHT22;7477;45.222;5.688;2023-08-01T00:22:40;21.10;90.90
14771;DHT22;7477;45.222;5.688;2023-08-01T00:26:00;21.20;90.00
14771;DHT22;7477;45.222;5.688;2023-08-01T00:29:19;21.20;89.30
14771;DHT22;7477;45.222;5.688;2023-08-01T00:32:38;21.10;90.50
14771;DHT22;7477;45.222;5.688;2023-08-01T00:35:57;21.00;90.50
14771;DHT22;7477;45.222;5.688;2023-08-01T00:39:16;21.20;89.10
14771;DHT22;7477;45.222;5.688;2023-08-01T00:42:36;21.30;88.30
14771;DHT22;7477;45.222;5.688;2023-08-01T00:45:59;21.30;87.80
14771;DHT22;7477;45.222;5.688;2023-08-01T00:49:20;21.20;87.70
14771;DHT22;7477;45.222;5.688;2023-08-01T00:52:40;21.00;87.70
14771;DHT22;7477;45.222;5.688;2023-08-01T00:55:59;21.00;87.90
14771;DHT22;7477;45.222;5.688;2023-08-01T00:59:19;21.20;88.20
14771;DHT22;7477;45.222;5.688;2023-08-01T01:02:58;21.10;88.50
14771;DHT22;7477;45.222;5.688;2023-08-01T01:06:25;21.10;87.70
14771;DHT22;7477;45.222;5.688;2023-08-01T01:09:45;20.90;87.90
14771;DHT22;7477;45.222;5.688;2023-08-01T01:13:04;20.90;88.20
14771;DHT22;7477;45.222;5.688;2023-08-01T01:16:23;20.70;88.60
14771;DHT22;7477;45.222;5.688;2023-08-01T01:19:43;20.50;89.20
14771;DHT22;7477;45.222;5.688;2023-08-01T01:23:04;20.70;89.30
14771;DHT22;7477;45.222;5.688;2023-08-01T01:26:24;20.60;89.40
14771;DHT22;7477;45.222;5.688;2023-08-01T01:29:43;20.60;89.20
14771;DHT22;7477;45.222;5.688;2023-08-01T01:33:04;20.40;90.50
14771;DHT22;7477;45.222;5.688;2023-08-01T01:36:23;20.40;90.40
14771;DHT22;7477;45.222;5.688;2023-08-01T01:39:43;20.40;89.70
14771;DHT22;7477;45.222;5.688;2023-08-01T01:43:02;20.30;90.50
14771;DHT22;7477;45.222;5.688;2023-08-01T01:46:21;20.20;90.50
14771;DHT22;7477;45.222;5.688;2023-08-01T01:49:41;20.20;90.10
14771;DHT22;7477;45.222;5.688;2023-08-01T01:53:00;20.20;90.10
14771;DHT22;7477;45.222;5.688;2023-08-01T01:56:19;20.20;90.10
14771;DHT22;7477;45.222;5.688;2023-08-01T01:59:38;20.20;89.70
14771;DHT22;7477;45.222;5.688;2023-08-01T02:02:57;20.20;89.40
14771;DHT22;7477;45.222;5.688;2023-08-01T02:06:17;20.20;89.50
14771;DHT22;7477;45.222;5.688;2023-08-01T02:09:36;20.20;88.80
14771;DHT22;7477;45.222;5.688;2023-08-01T02:12:55;20.20;89.00
14771;DHT22;7477;45.222;5.688;2023-08-01T02:16:14;20.00;89.80
14771;DHT22;7477;45.222;5.688;2023-08-01T02:19:33;20.10;89.50
14771;DHT22;7477;45.222;5.688;2023-08-01T02:22:52;20.10;89.20
14771;DHT22;7477;45.222;5.688;2023-08-01T02:26:12;20.30;88.70
14771;DHT22;7477;45.222;5.688;2023-08-01T02:29:31;20.20;89.20
14771;DHT22;7477;45.222;5.688;2023-08-01T02:32:50;19.90;90.00
14771;DHT22;7477;45.222;5.688;2023-08-01T02:36:09;19.90;90.40
14771;DHT22;7477;45.222;5.688;2023-08-01T02:39:29;20.20;91.10
14771;DHT22;7477;45.222;5.688;2023-08-01T02:42:48;20.00;91.40
14771;DHT22;7477;45.222;5.688;2023-08-01T02:46:07;19.80;91.00
14771;DHT22;7477;45.222;5.688;2023-08-01T02:49:26;19.90;91.70
14771;DHT22;7477;45.222;5.688;2023-08-01T02:52:45;19.90;92.20
14771;DHT22;7477;45.222;5.688;2023-08-01T02:56:04;19.80;92.40
14771;DHT22;7477;45.222;5.688;2023-08-01T02:59:26;19.60;92.40
14771;DHT22;7477;45.222;5.688;2023-08-01T03:02:45;19.60;92.70
14771;DHT22;7477;45.222;5.688;2023-08-01T03:06:04;19.60;92.90
14771;DHT22;7477;45.222;5.688;2023-08-01T03:09:23;19.50;93.30
14771;DHT22;7477;45.222;5.688;2023-08-01T03:12:42;19.50;93.40
14771;DHT22;7477;45.222;5.688;2023-08-01T03:16:01;19.50;94.00
14771;DHT22;7477;45.222;5.688;2023-08-01T03:19:23;19.40;93.70
14771;DHT22;7477;45.222;5.688;2023-08-01T03:22:43;19.50;94.00
14771;DHT22;7477;45.222;5.688;2023-08-01T03:26:03;19.50;93.70
14771;DHT22;7477;45.222;5.688;2023-08-01T03:29:22;19.50;93.70
14771;DHT22;7477;45.222;5.688;2023-08-01T03:32:41;19.60;93.70
14771;DHT22;7477;45.222;5.688;2023-08-01T03:36:01;19.60;93.70
14771;DHT22;7477;45.222;5.688;2023-08-01T03:39:20;19.50;94.00
14771;DHT22;7477;45.222;5.688;2023-08-01T03:42:39;19.50;94.00
14771;DHT22;7477;45.222;5.688;2023-08-01T03:45:59;19.60;93.30
14771;DHT22;7477;45.222;5.688;2023-08-01T03:49:18;19.50;93.60
14771;DHT22;7477;45.222;5.688;2023-08-01T03:52:37;19.40;93.80
14771;DHT22;7477;45.222;5.688;2023-08-01T03:55:56;19.40;93.70
14771;DHT22;7477;45.222;5.688;2023-08-01T03:59:16;19.50;93.10
14771;DHT22;7477;45.222;5.688;2023-08-01T04:02:35;19.40;93.40
14771;DHT22;7477;45.222;5.688;2023-08-01T04:05:54;19.30;92.80
14771;DHT22;7477;45.222;5.688;2023-08-01T04:09:13;19.40;92.80
14771;DHT22;7477;45.222;5.688;2023-08-01T04:12:33;19.40;92.90
14771;DHT22;7477;45.222;5.688;2023-08-01T04:15:53;19.30;93.30
14771;DHT22;7477;45.222;5.688;2023-08-01T04:19:12;19.20;93.70
14771;DHT22;7477;45.222;5.688;2023-08-01T04:22:32;19.10;94.20
14771;DHT22;7477;45.222;5.688;2023-08-01T04:25:51;19.20;94.70
14771;DHT22;7477;45.222;5.688;2023-08-01T04:29:10;19.10;94.80
14771;DHT22;7477;45.222;5.688;2023-08-01T04:32:29;19.10;95.20
14771;DHT22;7477;45.222;5.688;2023-08-01T04:35:49;19.10;95.30
14771;DHT22;7477;45.222;5.688;2023-08-01T04:39:08;19.10;95.60
14771;DHT22;7477;45.222;5.688;2023-08-01T04:42:28;19.10;95.90
14771;DHT22;7477;45.222;5.688;2023-08-01T04:45:48;19.10;96.30
14771;DHT22;7477;45.222;5.688;2023-08-01T04:49:07;19.00;96.20
14771;DHT22;7477;45.222;5.688;2023-08-01T04:52:26;19.00;96.30
14771;DHT22;7477;45.222;5.688;2023-08-01T04:55:46;19.00;96.40
14771;DHT22;7477;45.222;5.688;2023-08-01T04:59:05;19.00;96.60
14771;DHT22;7477;45.222;5.688;2023-08-01T05:02:25;19.00;96.50
14771;DHT22;7477;45.222;5.688;2023-08-01T05:05:44;19.00;96.40
14771;DHT22;7477;45.222;5.688;2023-08-01T05:09:03;18.90;95.90
14771;DHT22;7477;45.222;5.688;2023-08-01T05:12:23;19.00;96.20
14771;DHT22;7477;45.222;5.688;2023-08-01T05:15:46;19.00;96.50
14771;DHT22;7477;45.222;5.688;2023-08-01T05:19:09;19.00;96.90
14771;DHT22;7477;45.222;5.688;2023-08-01T05:22:28;19.00;97.50
14771;DHT22;7477;45.222;5.688;2023-08-01T05:25:47;18.90;97.40
14771;DHT22;7477;45.222;5.688;2023-08-01T05:29:06;19.00;97.90
14771;DHT22;7477;45.222;5.688;2023-08-01T05:32:25;18.90;97.60
14771;DHT22;7477;45.222;5.688;2023-08-01T05:35:44;19.00;97.90
14771;DHT22;7477;45.222;5.688;2023-08-01T05:39:03;19.00;96.90
14771;DHT22;7477;45.222;5.688;2023-08-01T05:42:22;19.10;96.60
14771;DHT22;7477;45.222;5.688;2023-08-01T05:45:42;19.10;97.00
14771;DHT22;7477;45.222;5.688;2023-08-01T05:49:01;19.20;97.80
14771;DHT22;7477;45.222;5.688;2023-08-01T05:52:20;19.20;98.60
14771;DHT22;7477;45.222;5.688;2023-08-01T05:55:39;19.20;97.70
14771;DHT22;7477;45.222;5.688;2023-08-01T05:58:58;19.20;97.00
14771;DHT22;7477;45.222;5.688;2023-08-01T06:02:17;19.30;96.90
14771;DHT22;7477;45.222;5.688;2023-08-01T06:05:36;19.40;96.50
14771;DHT22;7477;45.222;5.688;2023-08-01T06:08:56;19.50;96.70
14771;DHT22;7477;45.222;5.688;2023-08-01T06:12:17;19.50;96.70
14771;DHT22;7477;45.222;5.688;2023-08-01T06:15:36;19.60;96.90
14771;DHT22;7477;45.222;5.688;2023-08-01T06:18:55;19.70;96.80
14771;DHT22;7477;45.222;5.688;2023-08-01T06:22:15;19.90;96.40
14771;DHT22;7477;45.222;5.688;2023-08-01T06:25:35;20.10;96.10
14771;DHT22;7477;45.222;5.688;2023-08-01T06:28:54;20.00;96.10
14771;DHT22;7477;45.222;5.688;2023-08-01T06:32:13;19.90;96.00
14771;DHT22;7477;45.222;5.688;2023-08-01T06:35:32;19.90;96.00
14771;DHT22;7477;45.222;5.688;2023-08-01T06:38:51;20.00;96.20
14771;DHT22;7477;45.222;5.688;2023-08-01T06:42:11;20.00;96.20
14771;DHT22;7477;45.222;5.688;2023-08-01T06:45:30;20.00;96.70
14771;DHT22;7477;45.222;5.688;2023-08-01T06:48:49;20.00;96.70
14771;DHT22;7477;45.222;5.688;2023-08-01T06:52:08;20.10;96.80
14771;DHT22;7477;45.222;5.688;2023-08-01T06:55:27;20.20;97.10
14771;DHT22;7477;45.222;5.688;2023-08-01T06:58:46;20.30;97.30
14771;DHT22;7477;45.222;5.688;2023-08-01T07:02:06;20.30;96.80
14771;DHT22;7477;45.222;5.688;2023-08-01T07:05:26;20.40;97.30
14771;DHT22;7477;45.222;5.688;2023-08-01T07:08:45;20.50;97.70
14771;DHT22;7477;45.222;5.688;2023-08-01T07:12:05;20.50;98.00
14771;DHT22;7477;45.222;5.688;2023-08-01T07:15:25;20.40;97.30
14771;DHT22;7477;45.222;5.688;2023-08-01T07:18:45;20.30;96.50
14771;DHT22;7477;45.222;5.688;2023-08-01T07:22:04;20.30;96.70
14771;DHT22;7477;45.222;5.688;2023-08-01T07:25:23;20.30;98.40
14771;DHT22;7477;45.222;5.688;2023-08-01T07:28:44;20.30;97.20
14771;DHT22;7477;45.222;5.688;2023-08-01T07:32:04;20.40;97.90
14771;DHT22;7477;45.222;5.688;2023-08-01T07:35:23;20.50;98.40
14771;DHT22;7477;45.222;5.688;2023-08-01T07:38:42;20.50;97.70
14771;DHT22;7477;45.222;5.688;2023-08-01T07:42:01;20.50;98.40
14771;DHT22;7477;45.222;5.688;2023-08-01T07:45:20;20.50;98.30
14771;DHT22;7477;45.222;5.688;2023-08-01T07:48:39;20.50;98.30
14771;DHT22;7477;45.222;5.688;2023-08-01T07:51:59;20.50;99.00
14771;DHT22;7477;45.222;5.688;2023-08-01T07:55:18;20.50;98.80
14771;DHT22;7477;45.222;5.688;2023-08-01T07:58:37;20.50;98.40
14771;DHT22;7477;45.222;5.688;2023-08-01T08:01:56;20.40;97.80
14771;DHT22;7477;45.222;5.688;2023-08-01T08:05:16;20.40;97.70
14771;DHT22;7477;45.222;5.688;2023-08-01T08:08:36;20.70;97.50
14771;DHT22;7477;45.222;5.688;2023-08-01T08:11:55;20.40;98.10
14771;DHT22;7477;45.222;5.688;2023-08-01T08:15:17;20.40;98.50
14771;DHT22;7477;45.222;5.688;2023-08-01T08:18:36;20.50;98.00
14771;DHT22;7477;45.222;5.688;2023-08-01T08:21:55;20.60;98.20
14771;DHT22;7477;45.222;5.688;2023-08-01T08:25:14;20.50;98.70
14771;DHT22;7477;45.222;5.688;2023-08-01T08:28:34;20.50;99.40
14771;DHT22;7477;45.222;5.688;2023-08-01T08:31:53;20.50;99.70
14771;DHT22;7477;45.222;5.688;2023-08-01T08:35:13;20.50;99.40
14771;DHT22;7477;45.222;5.688;2023-08-01T08:38:32;20.50;99.80
14771;DHT22;7477;45.222;5.688;2023-08-01T08:41:52;20.60;99.90
14771;DHT22;7477;45.222;5.688;2023-08-01T08:45:11;20.60;99.90
14771;DHT22;7477;45.222;5.688;2023-08-01T08:48:34;20.80;99.90
14771;DHT22;7477;45.222;5.688;2023-08-01T08:51:54;21.00;98.80
14771;DHT22;7477;45.222;5.688;2023-08-01T08:55:13;21.20;97.30
14771;DHT22;7477;45.222;5.688;2023-08-01T08:58:33;21.50;96.90
14771;DHT22;7477;45.222;5.688;2023-08-01T09:01:53;21.40;96.60
14771;DHT22;7477;45.222;5.688;2023-08-01T09:05:12;21.50;97.20
14771;DHT22;7477;45.222;5.688;2023-08-01T09:08:35;21.70;98.00
14771;DHT22;7477;45.222;5.688;2023-08-01T09:11:54;21.80;97.90
14771;DHT22;7477;45.222;5.688;2023-08-01T09:15:15;21.90;98.60
14771;DHT22;7477;45.222;5.688;2023-08-01T09:18:35;21.80;98.70
14771;DHT22;7477;45.222;5.688;2023-08-01T09:21:54;21.80;98.30
14771;DHT22;7477;45.222;5.688;2023-08-01T09:25:14;21.80;98.80
14771;DHT22;7477;45.222;5.688;2023-08-01T09:28:34;21.80;98.80
14771;DHT22;7477;45.222;5.688;2023-08-01T09:31:53;21.70;99.00
14771;DHT22;7477;45.222;5.688;2023-08-01T09:35:13;21.70;99.00
14771;DHT22;7477;45.222;5.688;2023-08-01T09:38:37;21.70;98.50
14771;DHT22;7477;45.222;5.688;2023-08-01T09:42:00;21.70;99.30
14771;DHT22;7477;45.222;5.688;2023-08-01T09:45:20;21.70;99.40
14771;DHT22;7477;45.222;5.688;2023-08-01T09:48:39;21.60;98.90
14771;DHT22;7477;45.222;5.688;2023-08-01T09:51:59;21.60;99.50
14771;DHT22;7477;45.222;5.688;2023-08-01T09:55:26;21.70;99.90
14771;DHT22;7477;45.222;5.688;2023-08-01T09:58:51;21.70;99.90
14771;DHT22;7477;45.222;5.688;2023-08-01T10:02:14;21.80;99.90
14771;DHT22;7477;45.222;5.688;2023-08-01T10:05:35;21.80;99.90
14771;DHT22;7477;45.222;5.688;2023-08-01T10:08:58;21.90;99.90
14771;DHT22;7477;45.222;5.688;2023-08-01T10:12:18;21.90;99.30
14771;DHT22;7477;45.222;5.688;2023-08-01T10:15:37;21.90;98.70
14771;DHT22;7477;45.222;5.688;2023-08-01T10:18:59;21.90;99.80
14771;DHT22;7477;45.222;5.688;2023-08-01T10:22:19;21.90;99.90
14771;DHT22;7477;45.222;5.688;2023-08-01T10:25:39;22.20;99.90
14771;DHT22;7477;45.222;5.688;2023-08-01T10:29:00;22.20;99.90
14771;DHT22;7477;45.222;5.688;2023-08-01T10:32:37;22.30;99.90
14771;DHT22;7477;45.222;5.688;2023-08-01T10:35:56;22.30;99.90
14771;DHT22;7477;45.222;5.688;2023-08-01T10:39:21;22.40;99.90
14771;DHT22;7477;45.222;5.688;2023-08-01T10:42:45;22.40;99.90
14771;DHT22;7477;45.222;5.688;2023-08-01T10:46:04;22.40;99.90
14771;DHT22;7477;45.222;5.688;2023-08-01T10:49:40;22.60;99.90
14771;DHT22;7477;45.222;5.688;2023-08-01T10:53:07;22.60;99.90
14771;DHT22;7477;45.222;5.688;2023-08-01T10:56:26;22.70;98.10
14771;DHT22;7477;45.222;5.688;2023-08-01T10:59:47;22.70;97.60
14771;DHT22;7477;45.222;5.688;2023-08-01T11:03:07;22.80;98.30
14771;DHT22;7477;45.222;5.688;2023-08-01T11:06:26;22.80;98.60
14771;DHT22;7477;45.222;5.688;2023-08-01T11:09:45;23.00;98.80
14771;DHT22;7477;45.222;5.688;2023-08-01T11:13:04;23.00;98.90
14771;DHT22;7477;45.222;5.688;2023-08-01T11:16:23;22.80;98.20
14771;DHT22;7477;45.222;5.688;2023-08-01T11:19:44;22.90;98.00
14771;DHT22;7477;45.222;5.688;2023-08-01T11:23:03;23.00;97.00
14771;DHT22;7477;45.222;5.688;2023-08-01T11:26:23;23.20;96.20
14771;DHT22;7477;45.222;5.688;2023-08-01T11:29:43;23.10;96.30
14771;DHT22;7477;45.222;5.688;2023-08-01T11:33:14;22.70;96.80
14771;DHT22;7477;45.222;5.688;2023-08-01T11:36:33;22.60;96.90
14771;DHT22;7477;45.222;5.688;2023-08-01T11:39:53;22.60;96.30
14771;DHT22;7477;45.222;5.688;2023-08-01T11:43:13;22.50;96.90
14771;DHT22;7477;45.222;5.688;2023-08-01T11:46:33;22.80;96.70
14771;DHT22;7477;45.222;5.688;2023-08-01T11:49:53;22.90;96.20
14771;DHT22;7477;45.222;5.688;2023-08-01T11:53:20;23.40;95.40
14771;DHT22;7477;45.222;5.688;2023-08-01T11:56:41;23.40;95.40
14771;DHT22;7477;45.222;5.688;2023-08-01T12:00:01;23.40;95.70
14771;DHT22;7477;45.222;5.688;2023-08-01T12:03:20;23.40;95.00
14771;DHT22;7477;45.222;5.688;2023-08-01T12:06:40;23.40;95.60
14771;DHT22;7477;45.222;5.688;2023-08-01T12:10:01;23.60;95.60
14771;DHT22;7477;45.222;5.688;2023-08-01T12:13:24;23.60;95.20
14771;DHT22;7477;45.222;5.688;2023-08-01T12:16:46;23.50;95.50
14771;DHT22;7477;45.222;5.688;2023-08-01T12:20:06;23.60;94.80
14771;DHT22;7477;45.222;5.688;2023-08-01T12:23:26;23.60;95.00
14771;DHT22;7477;45.222;5.688;2023-08-01T12:26:45;23.60;94.80
14771;DHT22;7477;45.222;5.688;2023-08-01T12:30:05;23.50;95.10
14771;DHT22;7477;45.222;5.688;2023-08-01T12:33:24;23.60;96.20
14771;DHT22;7477;45.222;5.688;2023-08-01T12:36:44;24.10;95.00
14771;DHT22;7477;45.222;5.688;2023-08-01T12:40:03;24.40;92.80
14771;DHT22;7477;45.222;5.688;2023-08-01T12:43:23;24.40;92.40
14771;DHT22;7477;45.222;5.688;2023-08-01T12:46:42;24.40;93.90
14771;DHT22;7477;45.222;5.688;2023-08-01T12:50:02;24.50;93.20
14771;DHT22;7477;45.222;5.688;2023-08-01T12:53:22;24.40;92.80
14771;DHT22;7477;45.222;5.688;2023-08-01T12:56:43;24.30;93.60
14771;DHT22;7477;45.222;5.688;2023-08-01T13:00:02;23.70;94.10
14771;DHT22;7477;45.222;5.688;2023-08-01T13:03:22;23.40;94.80
14771;DHT22;7477;45.222;5.688;2023-08-01T13:06:41;23.80;95.10
14771;DHT22;7477;45.222;5.688;2023-08-01T13:10:01;23.40;94.40
14771;DHT22;7477;45.222;5.688;2023-08-01T13:13:20;23.50;95.40
14771;DHT22;7477;45.222;5.688;2023-08-01T13:16:39;23.90;94.30
14771;DHT22;7477;45.222;5.688;2023-08-01T13:19:58;23.90;94.20
14771;DHT22;7477;45.222;5.688;2023-08-01T13:23:17;23.50;94.60
14771;DHT22;7477;45.222;5.688;2023-08-01T13:26:36;24.40;93.60
14771;DHT22;7477;45.222;5.688;2023-08-01T13:29:56;24.90;92.60
14771;DHT22;7477;45.222;5.688;2023-08-01T13:33:16;25.10;93.10
14771;DHT22;7477;45.222;5.688;2023-08-01T13:36:35;25.00;93.20
14771;DHT22;7477;45.222;5.688;2023-08-01T13:39:56;25.30;92.20
14771;DHT22;7477;45.222;5.688;2023-08-01T13:43:16;25.40;91.60
14771;DHT22;7477;45.222;5.688;2023-08-01T13:46:35;25.60;90.90
14771;DHT22;7477;45.222;5.688;2023-08-01T13:49:54;25.50;92.40
14771;DHT22;7477;45.222;5.688;2023-08-01T13:53:13;25.90;90.10
14771;DHT22;7477;45.222;5.688;2023-08-01T13:56:33;25.90;88.80
14771;DHT22;7477;45.222;5.688;2023-08-01T13:59:52;25.90;89.30
14771;DHT22;7477;45.222;5.688;2023-08-01T14:03:11;25.70;90.30
14771;DHT22;7477;45.222;5.688;2023-08-01T14:06:30;25.90;89.50
14771;DHT22;7477;45.222;5.688;2023-08-01T14:09:49;25.10;91.20
14771;DHT22;7477;45.222;5.688;2023-08-01T14:13:08;24.30;92.30
14771;DHT22;7477;45.222;5.688;2023-08-01T14:16:28;25.90;89.80
14771;DHT22;7477;45.222;5.688;2023-08-01T14:19:48;26.10;90.10
14771;DHT22;7477;45.222;5.688;2023-08-01T14:23:07;26.00;90.30
14771;DHT22;7477;45.222;5.688;2023-08-01T14:26:27;26.40;89.70
14771;DHT22;7477;45.222;5.688;2023-08-01T14:29:47;26.40;89.90
14771;DHT22;7477;45.222;5.688;2023-08-01T14:33:09;26.40;88.60
14771;DHT22;7477;45.222;5.688;2023-08-01T14:36:29;26.20;89.40
14771;DHT22;7477;45.222;5.688;2023-08-01T14:39:49;26.20;90.40
14771;DHT22;7477;45.222;5.688;2023-08-01T14:43:09;27.10;86.40
14771;DHT22;7477;45.222;5.688;2023-08-01T14:46:28;27.20;85.00
14771;DHT22;7477;45.222;5.688;2023-08-01T14:49:48;26.50;87.90
14771;DHT22;7477;45.222;5.688;2023-08-01T14:53:07;26.80;85.60
14771;DHT22;7477;45.222;5.688;2023-08-01T14:56:27;26.70;90.00
14771;DHT22;7477;45.222;5.688;2023-08-01T14:59:46;27.20;85.80
14771;DHT22;7477;45.222;5.688;2023-08-01T15:03:05;28.10;83.00
14771;DHT22;7477;45.222;5.688;2023-08-01T15:06:24;28.20;81.60
14771;DHT22;7477;45.222;5.688;2023-08-01T15:09:45;27.90;82.20
14771;DHT22;7477;45.222;5.688;2023-08-01T15:13:04;27.60;81.50
14771;DHT22;7477;45.222;5.688;2023-08-01T15:16:24;27.10;84.00
14771;DHT22;7477;45.222;5.688;2023-08-01T15:19:43;26.90;84.20
14771;DHT22;7477;45.222;5.688;2023-08-01T15:23:03;26.90;84.10
14771;DHT22;7477;45.222;5.688;2023-08-01T15:26:22;26.70;83.30
14771;DHT22;7477;45.222;5.688;2023-08-01T15:29:45;26.90;83.10
14771;DHT22;7477;45.222;5.688;2023-08-01T15:33:05;27.80;81.70
14771;DHT22;7477;45.222;5.688;2023-08-01T15:36:27;28.30;79.10
14771;DHT22;7477;45.222;5.688;2023-08-01T15:39:47;28.40;77.60
14771;DHT22;7477;45.222;5.688;2023-08-01T15:43:06;28.20;79.20
14771;DHT22;7477;45.222;5.688;2023-08-01T15:46:25;28.50;76.10
14771;DHT22;7477;45.222;5.688;2023-08-01T15:49:44;28.10;77.20
14771;DHT22;7477;45.222;5.688;2023-08-01T15:53:03;28.00;76.70
14771;DHT22;7477;45.222;5.688;2023-08-01T15:56:23;28.00;77.80
14771;DHT22;7477;45.222;5.688;2023-08-01T15:59:42;27.90;78.00
14771;DHT22;7477;45.222;5.688;2023-08-01T16:03:01;27.70;77.80
14771;DHT22;7477;45.222;5.688;2023-08-01T16:06:23;27.80;79.80
14771;DHT22;7477;45.222;5.688;2023-08-01T16:09:42;28.70;76.30
14771;DHT22;7477;45.222;5.688;2023-08-01T16:13:01;28.40;76.50
14771;DHT22;7477;45.222;5.688;2023-08-01T16:16:20;28.20;78.50
14771;DHT22;7477;45.222;5.688;2023-08-01T16:19:40;28.30;80.20
14771;DHT22;7477;45.222;5.688;2023-08-01T16:22:59;29.00;78.70
14771;DHT22;7477;45.222;5.688;2023-08-01T16:26:18;29.40;79.60
14771;DHT22;7477;45.222;5.688;2023-08-01T16:29:37;29.60;78.10
14771;DHT22;7477;45.222;5.688;2023-08-01T16:32:57;29.20;78.00
14771;DHT22;7477;45.222;5.688;2023-08-01T16:36:17;28.50;78.60
14771;DHT22;7477;45.222;5.688;2023-08-01T16:39:36;28.00;78.40
14771;DHT22;7477;45.222;5.688;2023-08-01T16:42:57;27.70;78.20
14771;DHT22;7477;45.222;5.688;2023-08-01T16:46:17;27.50;79.60
14771;DHT22;7477;45.222;5.688;2023-08-01T16:49:36;27.30;79.00
14771;DHT22;7477;45.222;5.688;2023-08-01T16:52:55;27.30;80.90
14771;DHT22;7477;45.222;5.688;2023-08-01T16:56:14;27.30;80.50
14771;DHT22;7477;45.222;5.688;2023-08-01T16:59:36;27.30;82.50
14771;DHT22;7477;45.222;5.688;2023-08-01T17:02:56;27.20;83.40
14771;DHT22;7477;45.222;5.688;2023-08-01T17:06:15;27.20;84.20
14771;DHT22;7477;45.222;5.688;2023-08-01T17:09:34;27.20;81.80
14771;DHT22;7477;45.222;5.688;2023-08-01T17:12:54;27.10;82.40
14771;DHT22;7477;45.222;5.688;2023-08-01T17:16:13;27.10;82.90
14771;DHT22;7477;45.222;5.688;2023-08-01T17:19:32;27.10;82.40
14771;DHT22;7477;45.222;5.688;2023-08-01T17:22:51;27.10;82.90
14771;DHT22;7477;45.222;5.688;2023-08-01T17:26:10;27.00;83.30
14771;DHT22;7477;45.222;5.688;2023-08-01T17:29:29;26.90;84.70
14771;DHT22;7477;45.222;5.688;2023-08-01T17:32:48;26.80;85.40
14771;DHT22;7477;45.222;5.688;2023-08-01T17:36:09;26.70;84.60
14771;DHT22;7477;45.222;5.688;2023-08-01T17:39:28;26.60;83.30
14771;DHT22;7477;45.222;5.688;2023-08-01T17:42:47;26.50;82.80
14771;DHT22;7477;45.222;5.688;2023-08-01T17:46:06;26.50;82.80
14771;DHT22;7477;45.222;5.688;2023-08-01T17:49:25;26.40;83.80
14771;DHT22;7477;45.222;5.688;2023-08-01T17:52:44;26.30;84.90
14771;DHT22;7477;45.222;5.688;2023-08-01T17:56:04;26.30;85.70
14771;DHT22;7477;45.222;5.688;2023-08-01T17:59:24;26.20;86.00
14771;DHT22;7477;45.222;5.688;2023-08-01T18:02:43;26.20;86.60
14771;DHT22;7477;45.222;5.688;2023-08-01T18:06:13;26.10;86.60
14771;DHT22;7477;45.222;5.688;2023-08-01T18:09:32;26.00;86.90
14771;DHT22;7477;45.222;5.688;2023-08-01T18:12:51;25.90;87.60
14771;DHT22;7477;45.222;5.688;2023-08-01T18:16:23;25.80;88.60
14771;DHT22;7477;45.222;5.688;2023-08-01T18:19:43;25.80;89.50
14771;DHT22;7477;45.222;5.688;2023-08-01T18:23:05;25.70;89.40
14771;DHT22;7477;45.222;5.688;2023-08-01T18:26:24;25.50;89.30
14771;DHT22;7477;45.222;5.688;2023-08-01T18:29:44;25.60;89.40
14771;DHT22;7477;45.222;5.688;2023-08-01T18:33:03;25.50;89.00
14771;DHT22;7477;45.222;5.688;2023-08-01T18:36:22;25.40;89.30
14771;DHT22;7477;45.222;5.688;2023-08-01T18:39:44;25.40;89.60
14771;DHT22;7477;45.222;5.688;2023-08-01T18:43:04;25.50;90.00
14771;DHT22;7477;45.222;5.688;2023-08-01T18:46:23;25.40;89.90
14771;DHT22;7477;45.222;5.688;2023-08-01T18:49:43;25.40;89.90
14771;DHT22;7477;45.222;5.688;2023-08-01T18:53:02;25.40;90.20
14771;DHT22;7477;45.222;5.688;2023-08-01T18:56:22;25.40;90.20
14771;DHT22;7477;45.222;5.688;2023-08-01T18:59:41;25.40;90.10
14771;DHT22;7477;45.222;5.688;2023-08-01T19:03:00;25.40;90.40
14771;DHT22;7477;45.222;5.688;2023-08-01T19:06:22;25.40;90.50
14771;DHT22;7477;45.222;5.688;2023-08-01T19:09:42;25.40;90.20
14771;DHT22;7477;45.222;5.688;2023-08-01T19:13:01;25.30;90.10
14771;DHT22;7477;45.222;5.688;2023-08-01T19:16:21;25.30;90.40
14771;DHT22;7477;45.222;5.688;2023-08-01T19:19:41;25.30;90.40
14771;DHT22;7477;45.222;5.688;2023-08-01T19:23:01;25.30;90.30
14771;DHT22;7477;45.222;5.688;2023-08-01T19:26:20;25.30;90.60
14771;DHT22;7477;45.222;5.688;2023-08-01T19:29:39;25.20;90.00
14771;DHT22;7477;45.222;5.688;2023-08-01T19:32:59;25.20;90.50
14771;DHT22;7477;45.222;5.688;2023-08-01T19:36:21;25.20;90.60
14771;DHT22;7477;45.222;5.688;2023-08-01T19:39:40;25.20;90.20
14771;DHT22;7477;45.222;5.688;2023-08-01T19:42:59;25.20;90.20
14771;DHT22;7477;45.222;5.688;2023-08-01T19:46:18;25.20;90.10
14771;DHT22;7477;45.222;5.688;2023-08-01T19:49:38;25.10;90.00
14771;DHT22;7477;45.222;5.688;2023-08-01T19:52:57;25.00;90.50
14771;DHT22;7477;45.222;5.688;2023-08-01T19:56:17;25.10;90.30
14771;DHT22;7477;45.222;5.688;2023-08-01T19:59:36;25.10;90.50
14771;DHT22;7477;45.222;5.688;2023-08-01T20:02:56;25.00;89.60
14771;DHT22;7477;45.222;5.688;2023-08-01T20:06:15;25.00;90.60
14771;DHT22;7477;45.222;5.688;2023-08-01T20:09:34;25.10;90.70
14771;DHT22;7477;45.222;5.688;2023-08-01T20:12:53;25.00;90.00
14771;DHT22;7477;45.222;5.688;2023-08-01T20:16:13;25.00;89.20
14771;DHT22;7477;45.222;5.688;2023-08-01T20:19:32;24.80;88.80
14771;DHT22;7477;45.222;5.688;2023-08-01T20:22:56;24.70;88.60
14771;DHT22;7477;45.222;5.688;2023-08-01T20:26:15;24.50;88.00
14771;DHT22;7477;45.222;5.688;2023-08-01T20:29:34;24.50;88.00
14771;DHT22;7477;45.222;5.688;2023-08-01T20:32:53;24.60;87.90
14771;DHT22;7477;45.222;5.688;2023-08-01T20:36:13;24.50;88.10
14771;DHT22;7477;45.222;5.688;2023-08-01T20:39:32;24.70;87.60
14771;DHT22;7477;45.222;5.688;2023-08-01T20:42:54;24.60;87.30
14771;DHT22;7477;45.222;5.688;2023-08-01T20:46:13;24.60;87.00
14771;DHT22;7477;45.222;5.688;2023-08-01T20:49:34;24.60;86.70
14771;DHT22;7477;45.222;5.688;2023-08-01T20:52:53;24.60;87.50
14771;DHT22;7477;45.222;5.688;2023-08-01T20:56:12;24.60;88.70
14771;DHT22;7477;45.222;5.688;2023-08-01T20:59:32;24.50;87.70
14771;DHT22;7477;45.222;5.688;2023-08-01T21:02:53;24.50;87.20
14771;DHT22;7477;45.222;5.688;2023-08-01T21:06:13;24.40;87.00
14771;DHT22;7477;45.222;5.688;2023-08-01T21:09:34;24.50;87.30
14771;DHT22;7477;45.222;5.688;2023-08-01T21:12:53;24.50;88.40
14771;DHT22;7477;45.222;5.688;2023-08-01T21:16:14;24.60;89.10
14771;DHT22;7477;45.222;5.688;2023-08-01T21:19:33;24.60;90.10
14771;DHT22;7477;45.222;5.688;2023-08-01T21:22:53;24.60;87.90